Time,TemperatureF,DewpointF,PressureIn,WindDirection,WindDirectionDegrees,WindSpeedMPH,WindSpeedGustMPH,Humidity,HourlyPrecipIn,Conditions,Clouds,dailyrainin,SolarRadiationWatts/m^2,SoftwareType,DateUTC
2013-03-21 00:00:00,36.7,35.4,28.61,North,350,1.1,1.5,95,0.01,CLR,FEW,0.00,0.0,WeatherDisplay:10.37,2013-03-20 23:00:00,
2013-03-21 00:05:00,36.1,34.8,28.61,North,350,0.0,0.0,95,0.01,RA,FEW,0.00,0.0,WeatherDisplay:10.37,2013-03-20 23:05:00,
2013-03-21 00:10:00,36.3,35.0,28.61,North,350,0.0,0.0,95,0.01,CLR,FEW,0.00,0.0,WeatherDisplay:10.37,2013-03-20 23:10:00,
2013-03-21 00:15:00,36.3,35.0,28.61,North,350,0.0,0.0,95,0.00,CLR,FEW,0.00,0.0,WeatherDisplay:10.37,2013-03-20 23:15:00,
2013-03-21 00:20:00,36.3,35.0,28.61,North,350,0.0,0.0,95,0.00,CLR,FEW,0.00,0.0,WeatherDisplay:10.37,2013-03-20 23:20:00,
2013-03-21 00:25:00,36.3,35.0,28.61,North,350,0.0,0.0,95,0.00,CLR,FEW,0.00,0.0,WeatherDisplay:10.37,2013-03-20 23:25:00,
2013-03-21 00:30:00,36.1,34.8,28.61,North,350,0.0,0.0,95,0.00,CLR,FEW,0.00,0.0,WeatherDisplay:10.37,2013-03-20 23:30:00,
2013-03-21 00:35:00,36.1,34.8,28.61,North,350,0.0,0.0,95,0.00,CLR,FEW,0.00,0.0,WeatherDisplay:10.37,2013-03-20 23:35:00,
2013-03-21 00:40:00,36.3,35.0,28.61,North,350,0.0,0.0,95,0.00,CLR,FEW,0.00,0.0,WeatherDisplay:10.37,2013-03-20 23:40:00,
2013-03-21 00:45:00,36.1,34.8,28.61,North,350,0.0,0.0,95,0.00,CLR,FEW,0.00,0.0,WeatherDisplay:10.37,2013-03-20 23:45:00,
2013-03-21 00:50:00,36.0,34.7,28.61,North,350,0.0,0.0,95,0.00,CLR,FEW,0.00,0.0,WeatherDisplay:10.37,2013-03-20 23:50:00,
2013-03-21 00:55:00,36.0,34.7,28.61,North,350,0.0,0.0,95,0.00,CLR,FEW,0.00,0.0,WeatherDisplay:10.37,2013-03-20 23:55:00,
2013-03-21 01:00:00,36.0,34.9,28.61,NNW,340,1.1,1.1,96,0.00,CLR,FEW,0.00,0.0,WeatherDisplay:10.37,2013-03-21 00:00:00,
2013-03-21 01:05:00,35.8,34.8,28.61,NNW,345,0.0,0.0,96,0.00,CLR,FEW,0.00,0.0,WeatherDisplay:10.37,2013-03-21 00:05:00,
2013-03-21 01:10:00,35.8,34.8,28.61,NW,315,0.0,0.0,96,0.00,CLR,FEW,0.00,0.0,WeatherDisplay:10.37,2013-03-21 00:10:00,
2013-03-21 01:15:00,35.8,34.8,28.61,North,350,2.3,2.4,96,0.00,CLR,FEW,0.00,0.0,WeatherDisplay:10.37,2013-03-21 00:15:00,
2013-03-21 01:20:00,35.6,34.6,28.61,NNW,345,1.1,1.1,96,0.00,CLR,FEW,0.00,0.0,WeatherDisplay:10.37,2013-03-21 00:20:00,
2013-03-21 01:25:00,35.6,34.6,28.61,NNW,345,1.1,1.1,96,0.00,CLR,FEW,0.00,0.0,WeatherDisplay:10.37,2013-03-21 00:25:00,
2013-03-21 01:30:00,35.2,34.0,28.61,NNW,345,0.0,0.0,95,0.00,CLR,FEW,0.00,0.0,WeatherDisplay:10.37,2013-03-21 00:30:00,
2013-03-21 01:35:00,34.9,33.6,28.61,NNW,345,0.0,0.0,95,0.00,CLR,FEW,0.00,0.0,WeatherDisplay:10.37,2013-03-21 00:35:00,
2013-03-21 01:40:00,34.7,33.4,28.61,NNW,345,0.0,0.0,95,0.00,CLR,FEW,0.00,0.0,WeatherDisplay:10.37,2013-03-21 00:40:00,
2013-03-21 01:45:00,34.7,33.7,28.61,NNW,345,0.0,0.0,96,0.00,CLR,FEW,0.00,0.0,WeatherDisplay:10.37,2013-03-21 00:45:00,
2013-03-21 01:51:00,34.5,33.5,28.61,NNW,345,0.0,0.0,96,0.00,CLR,FEW,0.00,0.0,WeatherDisplay:10.37,2013-03-21 00:51:00,
2013-03-21 01:56:00,34.5,33.5,28.61,NNW,345,0.0,0.0,96,0.00,CLR,FEW,0.00,0.0,WeatherDisplay:10.37,2013-03-21 00:56:00,
2013-03-21 02:01:00,34.9,33.9,28.64,NNW,340,0.0,0.4,96,0.00,CLR,FEW,0.00,0.0,WeatherDisplay:10.37,2013-03-21 01:01:00,
2013-03-21 02:06:00,34.3,33.3,28.64,NNW,340,0.0,0.0,96,0.00,CLR,FEW,0.00,0.0,WeatherDisplay:10.37,2013-03-21 01:06:00,
2013-03-21 02:11:00,34.2,33.1,28.64,NNW,340,0.0,0.0,96,0.00,CLR,FEW,0.00,0.0,WeatherDisplay:10.37,2013-03-21 01:11:00,
2013-03-21 02:16:00,33.8,32.8,28.61,WNW,285,0.0,0.0,96,0.00,CLR,FEW,0.00,0.0,WeatherDisplay:10.37,2013-03-21 01:16:00,
2013-03-21 02:21:00,34.0,33.0,28.61,WNW,295,0.0,0.0,96,0.00,CLR,FEW,0.00,0.0,WeatherDisplay:10.37,2013-03-21 01:21:00,
2013-03-21 02:26:00,34.2,33.1,28.61,NW,325,0.0,0.0,96,0.00,CLR,FEW,0.00,0.0,WeatherDisplay:10.37,2013-03-21 01:26:00,
2013-03-21 02:32:00,34.2,33.1,28.61,NW,325,0.0,0.0,96,0.00,CLR,FEW,0.00,0.0,WeatherDisplay:10.37,2013-03-21 01:32:00,
2013-03-21 02:37:00,34.5,33.5,28.61,NNW,340,0.0,0.4,96,0.00,CLR,FEW,0.00,0.0,WeatherDisplay:10.37,2013-03-21 01:37:00,
2013-03-21 02:42:00,33.8,32.8,28.61,NNW,340,0.0,0.0,96,0.00,CLR,FEW,0.00,0.0,WeatherDisplay:10.37,2013-03-21 01:42:00,
2013-03-21 02:47:00,33.8,32.8,28.61,NNW,340,0.0,0.0,96,0.00,CLR,FEW,0.00,0.0,WeatherDisplay:10.37,2013-03-21 01:47:00,
2013-03-21 02:52:00,34.5,33.5,28.61,NNW,345,0.0,0.6,96,0.00,CLR,FEW,0.00,0.0,WeatherDisplay:10.37,2013-03-21 01:52:00,
2013-03-21 02:57:00,33.8,32.8,28.61,NNW,345,0.0,0.0,96,0.00,CLR,FEW,0.00,0.0,WeatherDisplay:10.37,2013-03-21 01:57:00,
2013-03-21 03:02:00,33.6,32.6,28.61,NNW,345,0.0,0.0,96,0.00,CLR,FEW,0.00,0.0,WeatherDisplay:10.37,2013-03-21 02:02:00,
2013-03-21 03:07:00,33.8,32.8,28.61,NNW,345,0.0,0.0,96,0.00,CLR,FEW,0.00,0.0,WeatherDisplay:10.37,2013-03-21 02:07:00,
2013-03-21 03:12:00,33.8,32.8,28.61,NNW,345,0.0,0.0,96,0.00,CLR,FEW,0.00,0.0,WeatherDisplay:10.37,2013-03-21 02:12:00,
2013-03-21 03:17:00,34.2,33.1,28.61,North,350,0.0,0.0,96,0.00,CLR,FEW,0.00,0.0,WeatherDisplay:10.37,2013-03-21 02:17:00,
2013-03-21 03:22:00,34.3,33.3,28.61,NNW,335,2.3,2.4,96,0.00,CLR,FEW,0.00,0.0,WeatherDisplay:10.37,2013-03-21 02:22:00,
2013-03-21 03:27:00,34.7,33.9,28.61,NNW,345,3.5,3.5,97,0.00,CLR,FEW,0.00,0.0,WeatherDisplay:10.37,2013-03-21 02:27:00,
2013-03-21 03:32:00,34.5,33.8,28.61,NW,315,2.3,2.3,97,0.00,CLR,FEW,0.00,0.0,WeatherDisplay:10.37,2013-03-21 02:32:00,
2013-03-21 03:37:00,34.5,33.8,28.61,NW,315,2.3,2.3,97,0.00,CLR,FEW,0.00,0.0,WeatherDisplay:10.37,2013-03-21 02:37:00,
2013-03-21 03:42:00,35.1,34.3,28.61,North,355,2.3,2.3,97,0.00,CLR,FEW,0.00,0.0,WeatherDisplay:10.37,2013-03-21 02:42:00,
2013-03-21 03:47:00,35.4,34.7,28.61,NNW,330,2.3,2.3,97,0.00,CLR,FEW,0.00,0.0,WeatherDisplay:10.37,2013-03-21 02:47:00,
2013-03-21 03:52:00,36.0,34.9,28.61,NNW,340,5.8,5.8,96,0.00,CLR,FEW,0.00,0.0,WeatherDisplay:10.37,2013-03-21 02:52:00,
2013-03-21 03:57:00,36.0,34.9,28.61,NW,310,2.3,2.3,96,0.00,CLR,FEW,0.00,0.0,WeatherDisplay:10.37,2013-03-21 02:57:00,
2013-03-21 04:02:00,36.1,35.1,28.61,NE,35,5.8,6.2,96,0.00,CLR,FEW,0.00,0.0,WeatherDisplay:10.37,2013-03-21 03:02:00,
2013-03-21 04:07:00,36.1,35.1,28.61,West,280,3.5,3.5,96,0.00,CLR,FEW,0.00,0.0,WeatherDisplay:10.37,2013-03-21 03:07:00,
2013-03-21 04:12:00,36.1,35.1,28.61,West,280,3.5,3.5,96,0.00,CLR,FEW,0.00,0.0,WeatherDisplay:10.37,2013-03-21 03:12:00,
2013-03-21 04:17:00,36.3,35.3,28.61,NNW,345,5.8,5.8,96,0.00,CLR,FEW,0.00,0.0,WeatherDisplay:10.37,2013-03-21 03:17:00,
2013-03-21 04:22:00,36.3,35.3,28.61,North,5,4.6,4.6,96,0.00,CLR,FEW,0.00,0.0,WeatherDisplay:10.37,2013-03-21 03:22:00,
2013-03-21 04:27:00,36.7,35.4,28.61,NNE,30,3.5,3.5,95,0.00,CLR,FEW,0.00,0.0,WeatherDisplay:10.37,2013-03-21 03:27:00,
2013-03-21 04:32:00,36.9,35.6,28.61,ENE,60,4.6,4.6,95,0.00,CLR,FEW,0.00,0.0,WeatherDisplay:10.37,2013-03-21 03:32:00,
2013-03-21 04:37:00,36.9,35.6,28.61,ENE,60,4.6,4.6,95,0.00,CLR,FEW,0.00,0.0,WeatherDisplay:10.37,2013-03-21 03:37:00,
2013-03-21 04:42:00,36.9,35.6,28.61,NNE,25,9.2,9.2,95,0.00,CLR,FEW,0.00,0.0,WeatherDisplay:10.37,2013-03-21 03:42:00,
2013-03-21 04:47:00,37.4,35.6,28.61,NE,45,5.8,6.2,93,0.00,CLR,FEW,0.00,0.0,WeatherDisplay:10.37,2013-03-21 03:47:00,
2013-03-21 04:52:00,37.6,35.5,28.61,NNW,345,5.8,6.0,92,0.00,CLR,FEW,0.00,0.0,WeatherDisplay:10.37,2013-03-21 03:52:00,
2013-03-21 04:57:00,37.8,35.4,28.61,NNW,330,9.2,9.6,91,0.00,CLR,FEW,0.00,0.0,WeatherDisplay:10.37,2013-03-21 03:57:00,
2013-03-21 05:00:00,37.8,35.4,28.61,NNW,330,9.2,9.6,91,0.00,CLR,FEW,0.00,0.0,WeatherDisplay:10.37,2013-03-21 04:00:00,
2013-03-21 05:05:00,37.8,35.1,28.61,North,0,9.2,9.2,90,0.00,CLR,FEW,0.00,0.0,WeatherDisplay:10.37,2013-03-21 04:05:00,
2013-03-21 05:10:00,37.6,34.9,28.61,WNW,295,4.6,5.1,90,0.00,CLR,FEW,0.00,0.0,WeatherDisplay:10.37,2013-03-21 04:10:00,
2013-03-21 05:11:00,37.6,34.9,28.61,WNW,295,4.6,5.1,90,0.00,CLR,FEW,0.00,0.0,WeatherDisplay:10.37,2013-03-21 04:11:00,
2013-03-21 05:16:00,37.6,34.6,28.61,NW,310,10.4,10.4,89,0.00,CLR,FEW,0.00,0.0,WeatherDisplay:10.37,2013-03-21 04:16:00,
2013-03-21 05:21:00,37.6,34.6,28.61,NNW,345,12.7,13.2,89,0.00,CLR,FEW,0.00,0.0,WeatherDisplay:10.37,2013-03-21 04:21:00,
2013-03-21 05:26:00,37.6,34.6,28.64,NNW,330,8.1,8.1,89,0.00,CLR,FEW,0.00,0.0,WeatherDisplay:10.37,2013-03-21 04:26:00,
2013-03-21 05:31:00,37.6,34.6,28.64,NNW,330,8.1,8.1,89,0.00,CLR,FEW,0.00,0.0,WeatherDisplay:10.37,2013-03-21 04:31:00,
2013-03-21 05:36:00,37.6,34.6,28.64,North,355,6.9,6.9,89,0.00,CLR,FEW,0.00,0.0,WeatherDisplay:10.37,2013-03-21 04:36:00,
2013-03-21 05:41:00,37.6,34.6,28.64,NNW,345,8.1,8.5,89,0.00,CLR,FEW,0.00,0.0,WeatherDisplay:10.37,2013-03-21 04:41:00,
2013-03-21 05:46:00,37.4,34.5,28.64,NE,35,8.1,8.1,89,0.00,CLR,FEW,0.00,0.0,WeatherDisplay:10.37,2013-03-21 04:46:00,
2013-03-21 05:51:00,37.0,34.1,28.64,North,0,5.8,6.0,89,0.00,CLR,FEW,0.00,0.0,WeatherDisplay:10.37,2013-03-21 04:51:00,
2013-03-21 05:56:00,36.9,33.9,28.64,SW,235,4.6,4.7,89,0.00,CLR,FEW,0.00,0.0,WeatherDisplay:10.37,2013-03-21 04:56:00,
2013-03-21 06:01:00,36.9,33.9,28.64,NNW,330,6.9,7.3,89,0.00,OVC,FEW,0.00,0.0,WeatherDisplay:10.37,2013-03-21 05:01:00,
2013-03-21 06:07:00,36.9,33.9,28.64,NNW,330,6.9,7.3,89,0.00,OVC,FEW,0.00,0.0,WeatherDisplay:10.37,2013-03-21 05:07:00,
2013-03-21 06:12:00,36.9,33.9,28.64,NNW,330,6.9,7.3,89,0.00,OVC,FEW,0.00,0.0,WeatherDisplay:10.37,2013-03-21 05:12:00,
2013-03-21 06:17:00,37.0,34.4,28.64,North,350,6.9,7.1,90,0.00,OVC,FEW,0.00,0.0,WeatherDisplay:10.37,2013-03-21 05:17:00,
2013-03-21 06:22:00,37.0,34.4,28.64,NE,35,5.8,5.8,90,0.00,OVC,FEW,0.00,0.0,WeatherDisplay:10.37,2013-03-21 05:22:00,
2013-03-21 06:27:00,37.2,34.6,28.64,North,5,5.8,5.8,90,0.00,OVC,FEW,0.00,0.0,WeatherDisplay:10.37,2013-03-21 05:27:00,
2013-03-21 06:32:00,37.4,34.7,28.64,NNW,345,5.8,6.0,90,0.00,OVC,FEW,0.00,0.0,WeatherDisplay:10.37,2013-03-21 05:32:00,
2013-03-21 06:37:00,37.4,34.7,28.64,NNW,345,5.8,6.0,90,0.00,OVC,FEW,0.00,0.0,WeatherDisplay:10.37,2013-03-21 05:37:00,
2013-03-21 06:42:00,37.6,34.6,28.64,WNW,295,8.1,8.1,89,0.00,OVC,FEW,0.00,0.0,WeatherDisplay:10.37,2013-03-21 05:42:00,
2013-03-21 06:47:00,37.6,34.6,28.64,North,350,6.9,7.0,89,0.00,OVC,FEW,0.00,0.0,WeatherDisplay:10.37,2013-03-21 05:47:00,
2013-03-21 06:52:00,37.6,34.6,28.64,NE,40,4.6,4.6,89,0.00,OVC,FEW,0.00,0.0,WeatherDisplay:10.37,2013-03-21 05:52:00,
2013-03-21 06:57:00,37.6,34.6,28.64,East,90,4.6,4.6,89,0.00,OVC,FEW,0.00,0.0,WeatherDisplay:10.37,2013-03-21 05:57:00,
2013-03-21 07:02:00,37.8,35.1,28.64,NE,45,10.4,10.4,90,0.00,OVC,FEW,0.00,0.0,WeatherDisplay:10.37,2013-03-21 06:02:00,
2013-03-21 07:08:00,37.9,35.0,28.64,NNE,20,4.6,4.6,89,0.00,OVC,FEW,0.00,0.0,WeatherDisplay:10.37,2013-03-21 06:08:00,
2013-03-21 07:13:00,37.9,35.0,28.64,NNE,20,4.6,4.6,89,0.00,OVC,FEW,0.00,0.0,WeatherDisplay:10.37,2013-03-21 06:13:00,
2013-03-21 07:18:00,38.1,35.2,28.64,NNW,345,3.5,3.8,89,0.00,OVC,FEW,0.00,0.0,WeatherDisplay:10.37,2013-03-21 06:18:00,
2013-03-21 07:23:00,38.3,35.3,28.64,North,355,8.1,8.1,89,0.00,OVC,FEW,0.00,0.0,WeatherDisplay:10.37,2013-03-21 06:23:00,
2013-03-21 07:28:00,38.3,35.3,28.67,ENE,60,8.1,8.1,89,0.00,OVC,FEW,0.00,0.0,WeatherDisplay:10.37,2013-03-21 06:28:00,
2013-03-21 07:33:00,38.5,35.2,28.67,North,5,5.8,5.8,88,0.00,OVC,FEW,0.00,0.0,WeatherDisplay:10.37,2013-03-21 06:33:00,
2013-03-21 07:38:00,38.5,35.2,28.67,North,5,5.8,5.8,88,0.00,OVC,FEW,0.00,0.0,WeatherDisplay:10.37,2013-03-21 06:38:00,
2013-03-21 07:43:00,38.5,35.2,28.67,NNE,25,8.1,8.1,88,0.00,OVC,FEW,0.00,0.0,WeatherDisplay:10.37,2013-03-21 06:43:00,
2013-03-21 07:48:00,38.5,35.2,28.67,North,5,4.6,4.6,88,0.00,OVC,FEW,0.00,0.0,WeatherDisplay:10.37,2013-03-21 06:48:00,
2013-03-21 07:53:00,38.1,34.9,28.67,NNW,330,11.5,11.5,88,0.00,OVC,FEW,0.00,0.0,WeatherDisplay:10.37,2013-03-21 06:53:00,
2013-03-21 07:58:00,36.9,33.6,28.67,NNW,340,16.1,16.6,88,0.00,OVC,FEW,0.00,0.0,WeatherDisplay:10.37,2013-03-21 06:58:00,
2013-03-21 08:03:00,36.5,33.3,28.67,NNW,335,10.4,10.4,88,0.00,OVC,FEW,0.00,0.0,WeatherDisplay:10.37,2013-03-21 07:03:00,
2013-03-21 08:08:00,36.3,33.1,28.67,NE,45,9.2,9.4,88,0.00,OVC,FEW,0.00,0.0,WeatherDisplay:10.37,2013-03-21 07:08:00,
2013-03-21 08:13:00,36.3,33.1,28.67,NE,45,9.2,9.4,88,0.00,OVC,FEW,0.00,0.0,WeatherDisplay:10.37,2013-03-21 07:13:00,
2013-03-21 08:18:00,36.3,33.4,28.70,NE,45,6.9,7.1,89,0.00,OVC,FEW,0.00,0.0,WeatherDisplay:10.37,2013-03-21 07:18:00,
2013-03-21 08:23:00,35.8,32.6,28.70,North,0,12.7,13.0,88,0.00,OVC,FEW,0.00,0.0,WeatherDisplay:10.37,2013-03-21 07:23:00,
2013-03-21 08:28:00,35.8,32.3,28.70,NNE,20,11.5,11.7,87,0.00,OVC,FEW,0.00,0.0,WeatherDisplay:10.37,2013-03-21 07:28:00,
2013-03-21 08:33:00,35.6,31.8,28.70,NE,35,12.7,13.2,86,0.00,OVC,FEW,0.00,0.0,WeatherDisplay:10.37,2013-03-21 07:33:00,
2013-03-21 08:38:00,35.6,31.8,28.70,NNE,15,12.7,12.7,86,0.00,OVC,FEW,0.00,0.0,WeatherDisplay:10.37,2013-03-21 07:38:00,
2013-03-21 08:43:00,35.6,31.8,28.70,NNE,15,12.7,12.7,86,0.00,OVC,FEW,0.00,0.0,WeatherDisplay:10.37,2013-03-21 07:43:00,
2013-03-21 08:48:00,35.6,31.5,28.70,North,5,10.4,10.7,85,0.00,OVC,FEW,0.00,0.0,WeatherDisplay:10.37,2013-03-21 07:48:00,
2013-03-21 08:53:00,35.6,30.9,28.70,NNW,340,16.1,16.5,83,0.00,OVC,FEW,0.00,0.0,WeatherDisplay:10.37,2013-03-21 07:53:00,
2013-03-21 08:58:00,35.6,30.6,28.70,NE,35,11.5,11.5,82,0.00,OVC,FEW,0.00,0.0,WeatherDisplay:10.37,2013-03-21 07:58:00,
2013-03-21 09:03:00,35.6,30.3,28.70,NE,40,13.8,13.8,81,0.00,OVC,FEW,0.00,0.0,WeatherDisplay:10.37,2013-03-21 08:03:00,
2013-03-21 09:08:00,35.8,30.5,28.70,NE,35,9.2,9.4,81,0.00,OVC,FEW,0.00,0.0,WeatherDisplay:10.37,2013-03-21 08:08:00,
2013-03-21 09:13:00,36.0,30.4,28.73,NE,40,11.5,11.5,80,0.00,OVC,FEW,0.00,0.0,WeatherDisplay:10.37,2013-03-21 08:13:00,
2013-03-21 09:18:00,36.0,30.4,28.73,NE,40,11.5,11.5,80,0.00,OVC,FEW,0.00,0.0,WeatherDisplay:10.37,2013-03-21 08:18:00,
2013-03-21 09:23:00,36.1,30.3,28.73,North,10,11.5,11.5,79,0.00,OVC,FEW,0.00,0.0,WeatherDisplay:10.37,2013-03-21 08:23:00,
2013-03-21 09:28:00,36.5,30.6,28.73,NE,35,8.1,8.3,79,0.00,OVC,FEW,0.00,0.0,WeatherDisplay:10.37,2013-03-21 08:28:00,
2013-03-21 09:33:00,36.9,31.0,28.73,North,10,9.2,9.4,79,0.00,OVC,FEW,0.00,0.0,WeatherDisplay:10.37,2013-03-21 08:33:00,
2013-03-21 09:38:00,36.7,30.8,28.73,North,355,10.4,10.5,79,0.00,OVC,FEW,0.00,0.0,WeatherDisplay:10.37,2013-03-21 08:38:00,
2013-03-21 09:43:00,36.7,30.8,28.73,North,355,10.4,10.5,79,0.00,OVC,FEW,0.00,0.0,WeatherDisplay:10.37,2013-03-21 08:43:00,
2013-03-21 09:48:00,36.7,30.8,28.73,ENE,65,8.1,8.3,79,0.00,OVC,FEW,0.00,0.0,WeatherDisplay:10.37,2013-03-21 08:48:00,
2013-03-21 09:53:00,36.9,31.0,28.73,NE,35,9.2,9.2,79,0.00,OVC,FEW,0.00,0.0,WeatherDisplay:10.37,2013-03-21 08:53:00,
2013-03-21 09:58:00,36.5,30.3,28.73,ENE,70,11.5,11.5,78,0.00,OVC,FEW,0.00,0.0,WeatherDisplay:10.37,2013-03-21 08:58:00,
2013-03-21 10:03:00,36.9,31.0,28.73,North,350,9.2,9.2,79,0.00,OVC,FEW,0.00,0.0,WeatherDisplay:10.37,2013-03-21 09:03:00,
2013-03-21 10:08:00,36.3,30.4,28.73,NNE,30,9.2,9.8,79,0.00,OVC,FEW,0.00,0.0,WeatherDisplay:10.37,2013-03-21 09:08:00,
2013-03-21 10:13:00,36.0,29.8,28.76,ENE,60,11.5,11.5,78,0.00,OVC,FEW,0.00,0.0,WeatherDisplay:10.37,2013-03-21 09:13:00,
2013-03-21 10:18:00,36.0,29.8,28.76,ENE,60,11.5,11.5,78,0.00,OVC,FEW,0.00,0.0,WeatherDisplay:10.37,2013-03-21 09:18:00,
2013-03-21 10:23:00,35.6,29.4,28.76,NNE,25,12.7,12.8,78,0.00,OVC,FEW,0.00,0.0,WeatherDisplay:10.37,2013-03-21 09:23:00,
2013-03-21 10:28:00,35.6,29.4,28.76,NNW,340,9.2,9.4,78,0.00,OVC,FEW,0.00,0.0,WeatherDisplay:10.37,2013-03-21 09:28:00,
2013-03-21 10:33:00,35.6,29.1,28.76,North,10,12.7,13.2,77,0.00,OVC,FEW,0.00,0.0,WeatherDisplay:10.37,2013-03-21 09:33:00,
2013-03-21 10:38:00,35.6,28.8,28.76,NE,55,11.5,11.5,76,0.00,OVC,FEW,0.00,0.0,WeatherDisplay:10.37,2013-03-21 09:38:00,
2013-03-21 10:43:00,35.6,28.8,28.76,NE,55,11.5,11.5,76,0.00,OVC,FEW,0.00,0.0,WeatherDisplay:10.37,2013-03-21 09:43:00,
2013-03-21 10:48:00,36.0,28.8,28.76,NE,50,10.4,10.4,75,0.00,OVC,FEW,0.00,0.0,WeatherDisplay:10.37,2013-03-21 09:48:00,
2013-03-21 10:53:00,36.7,29.5,28.76,North,355,9.2,9.6,75,0.00,OVC,FEW,0.00,0.0,WeatherDisplay:10.37,2013-03-21 09:53:00,
2013-03-21 10:58:00,36.0,28.8,28.76,North,0,13.8,13.9,75,0.00,OVC,FEW,0.00,0.0,WeatherDisplay:10.37,2013-03-21 09:58:00,
2013-03-21 11:03:00,36.5,29.3,28.76,East,100,10.4,10.4,75,0.00,OVC,FEW,0.00,0.0,WeatherDisplay:10.37,2013-03-21 10:03:00,
2013-03-21 11:08:00,36.5,29.3,28.76,NNE,25,10.4,10.4,75,0.00,OVC,FEW,0.00,0.0,WeatherDisplay:10.37,2013-03-21 10:08:00,
2013-03-21 11:13:00,36.9,29.3,28.76,NNE,20,13.8,13.8,74,0.00,OVC,FEW,0.00,0.0,WeatherDisplay:10.37,2013-03-21 10:13:00,
2013-03-21 11:18:00,36.9,29.3,28.76,NNE,20,13.8,13.8,74,0.00,OVC,FEW,0.00,0.0,WeatherDisplay:10.37,2013-03-21 10:18:00,
2013-03-21 11:23:00,38.3,30.7,28.76,NNE,25,10.4,10.4,74,0.00,OVC,FEW,0.00,0.0,WeatherDisplay:10.37,2013-03-21 10:23:00,
2013-03-21 11:28:00,37.2,29.0,28.79,NNE,30,12.7,12.7,72,0.00,OVC,FEW,0.00,0.0,WeatherDisplay:10.37,2013-03-21 10:28:00,
2013-03-21 11:33:00,37.2,28.7,28.79,NE,50,13.8,13.8,71,0.00,OVC,FEW,0.00,0.0,WeatherDisplay:10.37,2013-03-21 10:33:00,
2013-03-21 11:38:00,37.6,28.7,28.79,NNE,30,11.5,11.5,70,0.00,OVC,FEW,0.00,0.0,WeatherDisplay:10.37,2013-03-21 10:38:00,
2013-03-21 11:43:00,37.6,28.7,28.79,NNE,30,11.5,11.5,70,0.00,OVC,FEW,0.00,0.0,WeatherDisplay:10.37,2013-03-21 10:43:00,
2013-03-21 11:48:00,37.6,28.7,28.79,North,355,11.5,11.5,70,0.00,OVC,FEW,0.00,0.0,WeatherDisplay:10.37,2013-03-21 10:48:00,
2013-03-21 11:53:00,37.2,28.3,28.79,ENE,75,9.2,9.6,70,0.00,OVC,FEW,0.00,0.0,WeatherDisplay:10.37,2013-03-21 10:53:00,
2013-03-21 11:58:00,36.9,28.0,28.79,NNE,25,11.5,11.5,70,0.00,OVC,FEW,0.00,0.0,WeatherDisplay:10.37,2013-03-21 10:58:00,
2013-03-21 12:03:00,36.9,28.0,28.79,North,355,9.2,9.4,70,0.00,OVC,FEW,0.00,0.0,WeatherDisplay:10.37,2013-03-21 11:03:00,
2013-03-21 12:08:00,36.9,28.0,28.79,ENE,65,9.2,9.2,70,0.00,OVC,FEW,0.00,0.0,WeatherDisplay:10.37,2013-03-21 11:08:00,
2013-03-21 12:13:00,36.5,27.3,28.79,NNE,15,9.2,9.8,69,0.00,OVC,FEW,0.00,0.0,WeatherDisplay:10.37,2013-03-21 11:13:00,
2013-03-21 12:18:00,36.5,27.3,28.79,NNE,15,9.2,9.8,69,0.00,OVC,FEW,0.00,0.0,WeatherDisplay:10.37,2013-03-21 11:18:00,
2013-03-21 12:23:00,36.5,27.3,28.79,NNE,15,9.2,9.8,69,0.00,OVC,FEW,0.00,0.0,WeatherDisplay:10.37,2013-03-21 11:23:00,
2013-03-21 12:28:00,39.2,29.5,28.79,ENE,75,9.2,9.2,68,0.00,OVC,FEW,0.00,0.0,WeatherDisplay:10.37,2013-03-21 11:28:00,
2013-03-21 12:33:00,37.9,27.6,28.79,ENE,60,10.4,10.5,66,0.00,OVC,FEW,0.00,0.0,WeatherDisplay:10.37,2013-03-21 11:33:00,
2013-03-21 12:38:00,37.2,26.9,28.79,North,10,16.1,16.5,66,0.00,OVC,FEW,0.00,0.0,WeatherDisplay:10.37,2013-03-21 11:38:00,
2013-03-21 12:43:00,37.2,26.9,28.79,North,10,16.1,16.5,66,0.00,OVC,FEW,0.00,0.0,WeatherDisplay:10.37,2013-03-21 11:43:00,
2013-03-21 12:49:00,37.4,27.4,28.79,East,95,9.2,9.6,67,0.00,OVC,FEW,0.00,0.0,WeatherDisplay:10.37,2013-03-21 11:49:00,
2013-03-21 12:54:00,37.8,27.4,28.79,NE,35,11.5,12.1,66,0.00,OVC,FEW,0.00,0.0,WeatherDisplay:10.37,2013-03-21 11:54:00,
2013-03-21 12:59:00,37.6,26.9,28.79,North,10,13.8,14.3,65,0.00,OVC,FEW,0.00,0.0,WeatherDisplay:10.37,2013-03-21 11:59:00,
2013-03-21 13:04:00,37.6,26.9,28.79,North,10,13.8,14.3,65,0.00,OVC,FEW,0.00,0.0,WeatherDisplay:10.37,2013-03-21 12:04:00,
2013-03-21 13:09:00,37.0,26.7,28.79,NNW,345,11.5,11.5,66,0.00,OVC,FEW,0.00,0.0,WeatherDisplay:10.37,2013-03-21 12:09:00,
2013-03-21 13:14:00,36.9,26.9,28.79,NE,50,11.5,11.9,67,0.00,OVC,FEW,0.00,0.0,WeatherDisplay:10.37,2013-03-21 12:14:00,
2013-03-21 13:19:00,36.9,26.9,28.79,NE,50,11.5,11.9,67,0.00,OVC,FEW,0.00,0.0,WeatherDisplay:10.37,2013-03-21 12:19:00,
2013-03-21 13:24:00,37.0,27.1,28.79,NE,45,6.9,6.9,67,0.00,OVC,FEW,0.00,0.0,WeatherDisplay:10.37,2013-03-21 12:24:00,
2013-03-21 13:29:00,37.0,27.1,28.79,NNE,15,10.4,10.4,67,0.00,OVC,FEW,0.00,0.0,WeatherDisplay:10.37,2013-03-21 12:29:00,
2013-03-21 13:34:00,36.7,26.7,28.79,NNE,30,13.8,13.8,67,0.00,OVC,FEW,0.00,0.0,WeatherDisplay:10.37,2013-03-21 12:34:00,
2013-03-21 13:39:00,36.9,27.3,28.79,NNE,25,9.2,9.4,68,0.00,OVC,FEW,0.00,0.0,WeatherDisplay:10.37,2013-03-21 12:39:00,
2013-03-21 13:44:00,36.9,27.6,28.82,ENE,70,6.9,7.3,69,0.00,OVC,FEW,0.00,0.0,WeatherDisplay:10.37,2013-03-21 12:44:00,
2013-03-21 13:49:00,36.9,27.6,28.82,ENE,70,6.9,7.3,69,0.00,OVC,FEW,0.00,0.0,WeatherDisplay:10.37,2013-03-21 12:49:00,
2013-03-21 13:54:00,36.9,27.6,28.82,NNW,340,6.9,7.0,69,0.00,OVC,FEW,0.00,0.0,WeatherDisplay:10.37,2013-03-21 12:54:00,
2013-03-21 13:59:00,36.5,27.3,28.82,North,5,9.2,9.2,69,0.00,OVC,FEW,0.00,0.0,WeatherDisplay:10.37,2013-03-21 12:59:00,
2013-03-21 14:04:00,36.3,27.1,28.82,NNE,20,10.4,10.5,69,0.00,OVC,FEW,0.00,0.0,WeatherDisplay:10.37,2013-03-21 13:04:00,
2013-03-21 14:09:00,36.3,27.1,28.82,NE,35,8.1,8.1,69,0.00,OVC,FEW,0.00,0.0,WeatherDisplay:10.37,2013-03-21 13:09:00,
2013-03-21 14:14:00,36.1,26.9,28.82,NE,35,8.1,8.1,69,0.00,OVC,FEW,0.00,0.0,WeatherDisplay:10.37,2013-03-21 13:14:00,
2013-03-21 14:19:00,36.1,26.9,28.82,NE,35,8.1,8.1,69,0.00,OVC,FEW,0.00,0.0,WeatherDisplay:10.37,2013-03-21 13:19:00,
2013-03-21 14:24:00,36.0,26.8,28.82,North,355,9.2,9.8,69,0.00,OVC,FEW,0.00,0.0,WeatherDisplay:10.37,2013-03-21 13:24:00,
2013-03-21 14:29:00,36.0,27.1,28.82,NNE,15,9.2,9.2,70,0.00,OVC,FEW,0.00,0.0,WeatherDisplay:10.37,2013-03-21 13:29:00,
2013-03-21 14:34:00,35.6,26.8,28.82,NNW,345,9.2,9.6,70,0.00,OVC,FEW,0.00,0.0,WeatherDisplay:10.37,2013-03-21 13:34:00,
2013-03-21 14:39:00,35.8,27.3,28.82,NE,50,4.6,4.6,71,0.00,OVC,FEW,0.00,0.0,WeatherDisplay:10.37,2013-03-21 13:39:00,
2013-03-21 14:44:00,35.2,27.1,28.82,NE,35,8.1,8.1,72,0.00,OVC,FEW,0.00,0.0,WeatherDisplay:10.37,2013-03-21 13:44:00,
2013-03-21 14:49:00,35.2,27.1,28.82,NE,35,8.1,8.1,72,0.00,OVC,FEW,0.00,0.0,WeatherDisplay:10.37,2013-03-21 13:49:00,
2013-03-21 14:54:00,35.2,27.1,28.82,NNW,345,10.4,10.4,72,0.00,OVC,FEW,0.00,0.0,WeatherDisplay:10.37,2013-03-21 13:54:00,
2013-03-21 14:59:00,35.2,27.1,28.82,North,355,8.1,8.1,72,0.00,OVC,FEW,0.00,0.0,WeatherDisplay:10.37,2013-03-21 13:59:00,
2013-03-21 15:04:00,35.2,27.1,28.82,NNW,340,8.1,8.1,72,0.00,OVC,FEW,0.00,0.0,WeatherDisplay:10.37,2013-03-21 14:04:00,
2013-03-21 15:09:00,34.9,26.8,28.82,NE,40,8.1,8.1,72,0.00,OVC,FEW,0.00,0.0,WeatherDisplay:10.37,2013-03-21 14:09:00,
2013-03-21 15:14:00,34.9,27.1,28.82,South,185,2.3,2.6,73,0.00,OVC,FEW,0.00,0.0,WeatherDisplay:10.37,2013-03-21 14:14:00,
2013-03-21 15:19:00,34.9,27.1,28.82,South,185,2.3,2.6,73,0.00,OVC,FEW,0.00,0.0,WeatherDisplay:10.37,2013-03-21 14:19:00,
2013-03-21 15:24:00,34.7,26.9,28.82,ENE,60,6.9,6.9,73,0.00,OVC,FEW,0.00,0.0,WeatherDisplay:10.37,2013-03-21 14:24:00,
2013-03-21 15:29:00,34.3,26.6,28.82,NNW,345,9.2,9.2,73,0.00,OVC,FEW,0.00,0.0,WeatherDisplay:10.37,2013-03-21 14:29:00,
2013-03-21 15:34:00,34.3,26.6,28.82,SE,125,4.6,4.6,73,0.00,OVC,FEW,0.00,0.0,WeatherDisplay:10.37,2013-03-21 14:34:00,
2013-03-21 15:39:00,34.3,26.6,28.82,East,95,9.2,9.8,73,0.00,OVC,FEW,0.00,0.0,WeatherDisplay:10.37,2013-03-21 14:39:00,
2013-03-21 15:44:00,34.3,26.6,28.82,East,90,5.8,5.8,73,0.00,OVC,FEW,0.00,0.0,WeatherDisplay:10.37,2013-03-21 14:44:00,
2013-03-21 15:49:00,34.3,26.6,28.82,East,90,5.8,5.8,73,0.00,OVC,FEW,0.00,0.0,WeatherDisplay:10.37,2013-03-21 14:49:00,
2013-03-21 15:54:00,34.2,26.4,28.82,NW,320,9.2,9.6,73,0.00,OVC,FEW,0.00,0.0,WeatherDisplay:10.37,2013-03-21 14:54:00,
2013-03-21 15:59:00,34.2,26.4,28.82,NE,35,4.6,4.6,73,0.00,OVC,FEW,0.00,0.0,WeatherDisplay:10.37,2013-03-21 14:59:00,
2013-03-21 16:04:00,34.2,26.4,28.82,NNE,15,8.1,8.1,73,0.00,OVC,FEW,0.00,0.0,WeatherDisplay:10.37,2013-03-21 15:04:00,
2013-03-21 16:09:00,34.0,26.2,28.82,NNW,340,9.2,9.2,73,0.00,OVC,FEW,0.00,0.0,WeatherDisplay:10.37,2013-03-21 15:09:00,
2013-03-21 16:15:00,34.0,26.2,28.82,NNW,330,6.9,6.9,73,0.00,OVC,FEW,0.00,0.0,WeatherDisplay:10.37,2013-03-21 15:15:00,
2013-03-21 16:20:00,34.0,26.2,28.82,NNW,330,6.9,6.9,73,0.00,OVC,FEW,0.00,0.0,WeatherDisplay:10.37,2013-03-21 15:20:00,
2013-03-21 16:25:00,34.0,25.9,28.82,North,350,9.2,9.2,72,0.00,OVC,FEW,0.00,0.0,WeatherDisplay:10.37,2013-03-21 15:25:00,
2013-03-21 16:30:00,33.8,26.1,28.82,SE,130,4.6,4.6,73,0.00,OVC,FEW,0.00,0.0,WeatherDisplay:10.37,2013-03-21 15:30:00,
2013-03-21 16:35:00,33.6,25.9,28.82,NE,40,4.6,4.6,73,0.00,OVC,FEW,0.00,0.0,WeatherDisplay:10.37,2013-03-21 15:35:00,
2013-03-21 16:40:00,33.6,26.5,28.82,NNE,30,2.3,2.3,75,0.00,OVC,FEW,0.00,0.0,WeatherDisplay:10.37,2013-03-21 15:40:00,
2013-03-21 16:45:00,33.4,26.4,28.85,North,5,3.5,4.0,75,0.00,OVC,FEW,0.00,0.0,WeatherDisplay:10.37,2013-03-21 15:45:00,
2013-03-21 16:50:00,33.4,26.4,28.85,North,5,3.5,4.0,75,0.00,OVC,FEW,0.00,0.0,WeatherDisplay:10.37,2013-03-21 15:50:00,
2013-03-21 16:55:00,33.3,26.2,28.85,NNW,330,5.8,6.2,75,0.00,OVC,FEW,0.00,0.0,WeatherDisplay:10.37,2013-03-21 15:55:00,
2013-03-21 17:00:00,33.3,26.2,28.85,NNE,30,8.1,8.1,75,0.00,OVC,FEW,0.00,0.0,WeatherDisplay:10.37,2013-03-21 16:00:00,
2013-03-21 17:05:00,33.3,26.2,28.85,South,185,6.9,6.9,75,0.00,OVC,FEW,0.00,0.0,WeatherDisplay:10.37,2013-03-21 16:05:00,
2013-03-21 17:10:00,33.4,26.4,28.85,East,90,4.6,4.6,75,0.00,OVC,FEW,0.00,0.0,WeatherDisplay:10.37,2013-03-21 16:10:00,
2013-03-21 17:15:00,33.4,26.4,28.85,North,10,4.6,4.6,75,0.00,OVC,FEW,0.00,0.0,WeatherDisplay:10.37,2013-03-21 16:15:00,
2013-03-21 17:20:00,33.4,26.4,28.85,NNE,25,4.9,4.9,75,0.00,OVC,FEW,0.00,0.0,WeatherDisplay:10.37,2013-03-21 16:20:00,
2013-03-21 17:25:00,33.4,26.4,28.85,NNE,25,4.6,4.9,75,0.00,OVC,FEW,0.00,0.0,WeatherDisplay:10.37,2013-03-21 16:25:00,
2013-03-21 17:30:00,33.4,26.4,28.85,NNE,30,3.5,3.5,75,0.00,OVC,FEW,0.00,0.0,WeatherDisplay:10.37,2013-03-21 16:30:00,
2013-03-21 17:35:00,33.6,25.9,28.85,North,5,5.8,5.8,73,0.00,OVC,FEW,0.00,0.0,WeatherDisplay:10.37,2013-03-21 16:35:00,
2013-03-21 17:40:00,33.6,25.9,28.85,North,5,5.8,5.8,73,0.00,OVC,FEW,0.00,0.0,WeatherDisplay:10.37,2013-03-21 16:40:00,
2013-03-21 17:45:00,33.4,25.0,28.85,WNW,285,10.4,10.7,71,0.00,OVC,FEW,0.00,0.0,WeatherDisplay:10.37,2013-03-21 16:45:00,
2013-03-21 17:50:00,33.4,24.7,28.85,WNW,290,6.9,6.9,70,0.00,OVC,FEW,0.00,0.0,WeatherDisplay:10.37,2013-03-21 16:50:00,
2013-03-21 17:55:00,33.4,24.7,28.85,WNW,290,6.9,6.9,70,0.00,OVC,FEW,0.00,0.0,WeatherDisplay:10.37,2013-03-21 16:55:00,
2013-03-21 18:00:00,33.3,24.5,28.85,NNE,30,9.2,9.2,70,0.00,OVC,FEW,0.00,0.0,WeatherDisplay:10.37,2013-03-21 17:00:00,
2013-03-21 18:05:00,33.3,24.5,28.85,NE,55,6.9,6.9,70,0.00,OVC,FEW,0.00,0.0,WeatherDisplay:10.37,2013-03-21 17:05:00,
2013-03-21 18:10:00,33.1,24.4,28.85,NNW,330,11.5,11.5,70,0.00,OVC,FEW,0.00,0.0,WeatherDisplay:10.37,2013-03-21 17:10:00,
2013-03-21 18:15:00,33.3,24.5,28.88,ENE,65,10.4,10.5,70,0.00,OVC,FEW,0.00,0.0,WeatherDisplay:10.37,2013-03-21 17:15:00,
2013-03-21 18:20:00,32.9,24.5,28.88,North,0,12.7,12.7,71,0.00,OVC,FEW,0.00,0.0,WeatherDisplay:10.37,2013-03-21 17:20:00,
2013-03-21 18:25:00,32.9,24.5,28.88,North,0,12.7,12.7,71,0.00,OVC,FEW,0.00,0.0,WeatherDisplay:10.37,2013-03-21 17:25:00,
2013-03-21 18:30:00,32.9,24.9,28.88,NW,325,4.6,4.6,72,0.00,OVC,FEW,0.00,0.0,WeatherDisplay:10.37,2013-03-21 17:30:00,
2013-03-21 18:35:00,32.7,24.7,28.88,NW,325,2.3,2.3,72,0.00,OVC,FEW,0.00,0.0,WeatherDisplay:10.37,2013-03-21 17:35:00,
2013-03-21 18:40:00,32.7,25.0,28.88,NE,50,4.6,4.6,73,0.00,OVC,FEW,0.00,0.0,WeatherDisplay:10.37,2013-03-21 17:40:00,
2013-03-21 18:45:00,32.7,25.0,28.88,ENE,70,6.9,6.9,73,0.00,OVC,FEW,0.00,0.0,WeatherDisplay:10.37,2013-03-21 17:45:00,
2013-03-21 18:50:00,32.7,25.0,28.88,North,5,4.6,4.6,73,0.00,CLR,FEW,0.00,0.0,WeatherDisplay:10.37,2013-03-21 17:50:00,
2013-03-21 18:55:00,32.7,25.0,28.88,North,5,4.6,4.6,73,0.00,CLR,FEW,0.00,0.0,WeatherDisplay:10.37,2013-03-21 17:55:00,
2013-03-21 19:00:00,32.7,24.7,28.88,NE,35,8.1,8.1,72,0.00,CLR,FEW,0.00,0.0,WeatherDisplay:10.37,2013-03-21 18:00:00,
2013-03-21 19:05:00,32.5,24.5,28.88,North,355,4.6,4.6,72,0.00,CLR,FEW,0.00,0.0,WeatherDisplay:10.37,2013-03-21 18:05:00,
2013-03-21 19:10:00,32.5,24.2,28.88,NNE,30,4.6,4.6,71,0.00,CLR,FEW,0.00,0.0,WeatherDisplay:10.37,2013-03-21 18:10:00,
2013-03-21 19:15:00,32.5,24.2,28.88,East,85,5.8,5.8,71,0.00,CLR,FEW,0.00,0.0,WeatherDisplay:10.37,2013-03-21 18:15:00,
2013-03-21 19:20:00,32.4,24.0,28.88,NE,50,4.6,4.9,71,0.00,CLR,FEW,0.00,0.0,WeatherDisplay:10.37,2013-03-21 18:20:00,
2013-03-21 19:25:00,32.4,24.0,28.88,NE,50,4.6,4.9,71,0.00,CLR,FEW,0.00,0.0,WeatherDisplay:10.37,2013-03-21 18:25:00,
2013-03-21 19:30:00,32.4,24.0,28.88,NE,50,4.6,4.9,71,0.00,CLR,FEW,0.00,0.0,WeatherDisplay:10.37,2013-03-21 18:30:00,
2013-03-21 19:35:00,32.2,24.5,28.88,NNW,335,4.6,4.6,73,0.00,CLR,FEW,0.00,0.0,WeatherDisplay:10.37,2013-03-21 18:35:00,
2013-03-21 19:40:00,32.2,24.5,28.88,NW,305,0.0,0.0,73,0.00,CLR,FEW,0.00,0.0,WeatherDisplay:10.37,2013-03-21 18:40:00,
2013-03-21 19:45:00,32.2,24.5,28.88,ESE,105,2.3,2.3,73,0.00,CLR,FEW,0.00,0.0,WeatherDisplay:10.37,2013-03-21 18:45:00,
2013-03-21 19:50:00,32.2,24.5,28.88,SE,130,2.3,2.8,73,0.00,CLR,FEW,0.00,0.0,WeatherDisplay:10.37,2013-03-21 18:50:00,
2013-03-21 19:55:00,32.2,24.5,28.88,SE,130,2.3,2.8,73,0.00,CLR,FEW,0.00,0.0,WeatherDisplay:10.37,2013-03-21 18:55:00,
2013-03-21 20:00:00,32.0,24.6,28.88,North,10,0.0,0.0,74,0.00,CLR,FEW,0.00,0.0,WeatherDisplay:10.37,2013-03-21 19:00:00,
2013-03-21 20:05:00,32.0,24.6,28.88,NNE,20,0.0,0.6,74,0.00,CLR,FEW,0.00,0.0,WeatherDisplay:10.37,2013-03-21 19:05:00,
2013-03-21 20:10:00,32.0,25.0,28.88,WSW,240,1.1,1.1,75,0.00,CLR,FEW,0.00,0.0,WeatherDisplay:10.37,2013-03-21 19:10:00,
2013-03-21 20:15:00,32.0,25.0,28.88,WSW,245,0.0,0.0,75,0.00,CLR,FEW,0.00,0.0,WeatherDisplay:10.37,2013-03-21 19:15:00,
2013-03-21 20:20:00,32.0,25.0,28.88,NE,45,3.5,3.5,75,0.00,CLR,FEW,0.00,0.0,WeatherDisplay:10.37,2013-03-21 19:20:00,
2013-03-21 20:25:00,32.0,25.0,28.88,NE,45,3.5,3.5,75,0.00,CLR,FEW,0.00,0.0,WeatherDisplay:10.37,2013-03-21 19:25:00,
2013-03-21 20:30:00,32.0,25.0,28.88,SE,130,4.6,4.6,75,0.00,CLR,FEW,0.00,0.0,WeatherDisplay:10.37,2013-03-21 19:30:00,
2013-03-21 20:35:00,32.0,25.0,28.88,NE,35,3.5,3.5,75,0.00,CLR,FEW,0.00,0.0,WeatherDisplay:10.37,2013-03-21 19:35:00,
2013-03-21 20:40:00,31.8,25.1,28.88,SE,140,1.1,1.5,76,0.00,CLR,FEW,0.00,0.0,WeatherDisplay:10.37,2013-03-21 19:40:00,
2013-03-21 20:45:00,31.8,25.1,28.88,North,0,0.0,0.0,76,0.00,CLR,FEW,0.00,0.0,WeatherDisplay:10.37,2013-03-21 19:45:00,
2013-03-21 20:50:00,31.8,25.1,28.88,NNE,20,0.0,0.2,76,0.00,CLR,FEW,0.00,0.0,WeatherDisplay:10.37,2013-03-21 19:50:00,
2013-03-21 20:55:00,31.8,25.1,28.88,NNE,20,0.0,0.2,76,0.00,CLR,FEW,0.00,0.0,WeatherDisplay:10.37,2013-03-21 19:55:00,
2013-03-21 21:00:00,31.8,25.1,28.88,NNW,345,0.0,0.0,76,0.00,CLR,FEW,0.00,0.0,WeatherDisplay:10.37,2013-03-21 20:00:00,
2013-03-21 21:05:00,31.8,24.8,28.88,NE,35,4.6,4.6,75,0.00,CLR,FEW,0.00,0.0,WeatherDisplay:10.37,2013-03-21 20:05:00,
2013-03-21 21:10:00,31.6,24.6,28.88,West,265,3.5,3.5,75,0.00,CLR,FEW,0.00,0.0,WeatherDisplay:10.37,2013-03-21 20:10:00,
2013-03-21 21:15:00,31.8,24.8,28.88,ESE,105,3.5,3.5,75,0.00,CLR,FEW,0.00,0.0,WeatherDisplay:10.37,2013-03-21 20:15:00,
2013-03-21 21:20:00,31.6,24.9,28.88,SSE,150,3.5,3.5,76,0.00,CLR,FEW,0.00,0.0,WeatherDisplay:10.37,2013-03-21 20:20:00,
2013-03-21 21:25:00,31.6,24.9,28.88,SSE,150,3.5,3.5,76,0.00,CLR,FEW,0.00,0.0,WeatherDisplay:10.37,2013-03-21 20:25:00,
2013-03-21 21:30:00,31.6,24.6,28.88,NNE,25,1.1,1.3,75,0.00,CLR,FEW,0.00,0.0,WeatherDisplay:10.37,2013-03-21 20:30:00,
2013-03-21 21:35:00,31.6,24.6,28.88,North,5,0.0,0.0,75,0.00,CLR,FEW,0.00,0.0,WeatherDisplay:10.37,2013-03-21 20:35:00,
2013-03-21 21:40:00,31.5,24.8,28.88,ENE,60,1.1,1.5,76,0.00,CLR,FEW,0.00,0.0,WeatherDisplay:10.37,2013-03-21 20:40:00,
2013-03-21 21:45:00,31.5,24.4,28.88,NNW,340,1.1,1.3,75,0.00,CLR,FEW,0.00,0.0,WeatherDisplay:10.37,2013-03-21 20:45:00,
2013-03-21 21:50:00,31.5,24.8,28.88,NNE,20,3.5,3.5,76,0.00,CLR,FEW,0.00,0.0,WeatherDisplay:10.37,2013-03-21 20:50:00,
2013-03-21 21:55:00,31.5,24.8,28.88,NNE,20,3.5,3.5,76,0.00,CLR,FEW,0.00,0.0,WeatherDisplay:10.37,2013-03-21 20:55:00,
2013-03-21 22:01:00,31.5,24.4,28.88,East,80,5.8,5.8,75,0.00,CLR,FEW,0.00,0.0,WeatherDisplay:10.37,2013-03-21 21:01:00,
2013-03-21 22:06:00,31.5,24.4,28.88,North,355,3.5,3.5,75,0.00,CLR,FEW,0.00,0.0,WeatherDisplay:10.37,2013-03-21 21:06:00,
2013-03-21 22:11:00,31.5,24.4,28.88,North,355,3.5,3.5,75,0.00,CLR,FEW,0.00,0.0,WeatherDisplay:10.37,2013-03-21 21:11:00,
2013-03-21 22:16:00,31.5,24.4,28.88,SSE,150,4.6,4.6,75,0.00,CLR,FEW,0.00,0.0,WeatherDisplay:10.37,2013-03-21 21:16:00,
2013-03-21 22:21:00,31.5,24.4,28.88,NNE,30,0.0,0.4,75,0.00,CLR,FEW,0.00,0.0,WeatherDisplay:10.37,2013-03-21 21:21:00,
2013-03-21 22:26:00,31.5,24.8,28.88,NW,325,5.8,5.8,76,0.00,CLR,FEW,0.00,0.0,WeatherDisplay:10.37,2013-03-21 21:26:00,
2013-03-21 22:32:00,31.3,24.6,28.88,NNW,340,2.3,2.3,76,0.00,CLR,FEW,0.00,0.0,WeatherDisplay:10.37,2013-03-21 21:32:00,
2013-03-21 22:37:00,31.3,24.6,28.88,NNW,340,2.3,2.3,76,0.00,CLR,FEW,0.00,0.0,WeatherDisplay:10.37,2013-03-21 21:37:00,
2013-03-21 22:42:00,31.3,24.6,28.88,North,350,2.3,2.3,76,0.00,CLR,FEW,0.00,0.0,WeatherDisplay:10.37,2013-03-21 21:42:00,
2013-03-21 22:47:00,31.1,24.4,28.88,NE,40,2.3,2.3,76,0.00,CLR,FEW,0.00,0.0,WeatherDisplay:10.37,2013-03-21 21:47:00,
2013-03-21 22:52:00,30.7,24.1,28.88,NE,35,3.5,3.5,76,0.00,CLR,FEW,0.00,0.0,WeatherDisplay:10.37,2013-03-21 21:52:00,
2013-03-21 22:58:00,30.7,24.1,28.88,ENE,70,1.1,1.7,76,0.00,CLR,FEW,0.00,0.0,WeatherDisplay:10.37,2013-03-21 21:58:00,
2013-03-21 23:03:00,30.4,24.3,28.88,NNE,25,1.1,1.1,78,0.00,CLR,FEW,0.00,0.0,WeatherDisplay:10.37,2013-03-21 22:03:00,
2013-03-21 23:08:00,30.2,24.2,28.88,North,355,3.5,3.5,78,0.00,CLR,FEW,0.00,0.0,WeatherDisplay:10.37,2013-03-21 22:08:00,
2013-03-21 23:13:00,30.0,24.0,28.88,NE,55,0.0,0.0,78,0.00,CLR,FEW,0.00,0.0,WeatherDisplay:10.37,2013-03-21 22:13:00,
2013-03-21 23:18:00,30.0,24.0,28.88,NE,55,0.0,0.0,78,0.00,CLR,FEW,0.00,0.0,WeatherDisplay:10.37,2013-03-21 22:18:00,
2013-03-21 23:23:00,29.5,23.8,28.88,NE,40,1.1,1.3,79,0.00,CLR,FEW,0.00,0.0,WeatherDisplay:10.37,2013-03-21 22:23:00,
2013-03-21 23:28:00,29.5,24.1,28.88,NNW,330,3.5,4.0,80,0.00,CLR,FEW,0.00,0.0,WeatherDisplay:10.37,2013-03-21 22:28:00,
2013-03-21 23:33:00,29.3,23.6,28.88,North,0,0.0,0.0,79,0.00,CLR,FEW,0.00,0.0,WeatherDisplay:10.37,2013-03-21 22:33:00,
2013-03-21 23:38:00,29.3,23.9,28.88,North,10,0.0,0.0,80,0.00,CLR,FEW,0.00,0.0,WeatherDisplay:10.37,2013-03-21 22:38:00,
2013-03-21 23:43:00,29.3,23.9,28.88,North,10,0.0,0.0,80,0.00,CLR,FEW,0.00,0.0,WeatherDisplay:10.37,2013-03-21 22:43:00,
2013-03-21 23:48:00,28.9,23.5,28.88,North,350,0.0,0.0,80,0.00,CLR,FEW,0.00,0.0,WeatherDisplay:10.37,2013-03-21 22:48:00,
2013-03-21 23:53:00,28.4,23.3,28.88,NNW,340,1.1,1.1,81,0.00,CLR,FEW,0.00,0.0,WeatherDisplay:10.37,2013-03-21 22:53:00,
2013-03-21 23:58:00,28.0,23.3,28.88,NNW,340,0.0,0.0,82,0.00,CLR,FEW,0.00,0.0,WeatherDisplay:10.37,2013-03-21 22:58:00,